sensor_id;sensor_type;location;lat;lon;timestamp;pressure;altitude;pressure_sealevel;temperature;humidity
48848;BME280;36611;51.638;5.784;2022-07-18T00:02:02;102293.38;;;21.97;42.37
48848;BME280;36611;51.638;5.784;2022-07-18T00:04:30;102291.94;;;21.93;42.55
48848;BME280;36611;51.638;5.784;2022-07-18T00:06:57;102288.66;;;21.89;42.81
48848;BME280;36611;51.638;5.784;2022-07-18T00:09:24;102293.69;;;21.84;42.75
48848;BME280;36611;51.638;5.784;2022-07-18T00:11:51;102290.69;;;21.78;42.37
48848;BME280;36611;51.638;5.784;2022-07-18T00:14:20;102293.28;;;21.70;42.62
48848;BME280;36611;51.638;5.784;2022-07-18T00:16:48;102284.66;;;21.65;42.94
48848;BME280;36611;51.638;5.784;2022-07-18T00:19:15;102285.97;;;21.61;42.59
48848;BME280;36611;51.638;5.784;2022-07-18T00:21:42;102285.66;;;21.54;42.65
48848;BME280;36611;51.638;5.784;2022-07-18T00:24:09;102288.09;;;21.47;43.05
48848;BME280;36611;51.638;5.784;2022-07-18T00:26:35;102283.22;;;21.41;43.36
48848;BME280;36611;51.638;5.784;2022-07-18T00:29:02;102282.66;;;21.38;43.15
48848;BME280;36611;51.638;5.784;2022-07-18T00:31:31;102272.72;;;21.37;43.26
48848;BME280;36611;51.638;5.784;2022-07-18T00:33:59;102271.16;;;21.34;43.39
48848;BME280;36611;51.638;5.784;2022-07-18T00:36:28;102268.13;;;21.28;43.78
48848;BME280;36611;51.638;5.784;2022-07-18T00:38:55;102267.56;;;21.24;43.49
48848;BME280;36611;51.638;5.784;2022-07-18T00:41:23;102267.81;;;21.21;43.89
48848;BME280;36611;51.638;5.784;2022-07-18T00:43:53;102263.63;;;21.17;43.75
48848;BME280;36611;51.638;5.784;2022-07-18T00:46:26;102262.78;;;21.16;44.02
48848;BME280;36611;51.638;5.784;2022-07-18T00:48:54;102263.06;;;21.13;43.76
48848;BME280;36611;51.638;5.784;2022-07-18T00:51:22;102264.22;;;21.11;44.04
48848;BME280;36611;51.638;5.784;2022-07-18T00:53:49;102262.50;;;21.10;43.85
48848;BME280;36611;51.638;5.784;2022-07-18T00:56:18;102261.78;;;21.08;44.16
48848;BME280;36611;51.638;5.784;2022-07-18T00:58:44;102263.63;;;21.07;44.32
48848;BME280;36611;51.638;5.784;2022-07-18T01:01:11;102259.31;;;21.05;43.88
48848;BME280;36611;51.638;5.784;2022-07-18T01:03:57;102259.47;;;21.03;44.00
48848;BME280;36611;51.638;5.784;2022-07-18T01:06:24;102256.88;;;21.02;43.99
48848;BME280;36611;51.638;5.784;2022-07-18T01:08:50;102250.69;;;21.00;44.33
48848;BME280;36611;51.638;5.784;2022-07-18T01:11:17;102258.16;;;20.98;44.10
48848;BME280;36611;51.638;5.784;2022-07-18T01:13:44;102253.00;;;20.94;44.26
48848;BME280;36611;51.638;5.784;2022-07-18T01:16:14;102253.28;;;20.91;44.56
48848;BME280;36611;51.638;5.784;2022-07-18T01:18:49;102250.84;;;20.88;44.36
48848;BME280;36611;51.638;5.784;2022-07-18T01:21:16;102251.97;;;20.86;44.19
48848;BME280;36611;51.638;5.784;2022-07-18T01:23:46;102243.94;;;20.84;44.56
48848;BME280;36611;51.638;5.784;2022-07-18T01:26:14;102246.94;;;20.81;44.68
48848;BME280;36611;51.638;5.784;2022-07-18T01:28:42;102250.66;;;20.80;44.40
48848;BME280;36611;51.638;5.784;2022-07-18T01:31:09;102247.19;;;20.78;44.51
48848;BME280;36611;51.638;5.784;2022-07-18T01:33:39;102250.34;;;20.74;44.36
48848;BME280;36611;51.638;5.784;2022-07-18T01:36:06;102252.63;;;20.69;44.46
48848;BME280;36611;51.638;5.784;2022-07-18T01:38:33;102252.91;;;20.66;44.29
48848;BME280;36611;51.638;5.784;2022-07-18T01:41:01;102246.00;;;20.61;44.74
48848;BME280;36611;51.638;5.784;2022-07-18T01:43:27;102240.97;;;20.57;44.28
48848;BME280;36611;51.638;5.784;2022-07-18T01:45:54;102237.53;;;20.55;44.65
48848;BME280;36611;51.638;5.784;2022-07-18T01:48:22;102241.53;;;20.51;44.87
48848;BME280;36611;51.638;5.784;2022-07-18T01:50:51;102234.03;;;20.43;44.58
48848;BME280;36611;51.638;5.784;2022-07-18T01:53:19;102229.41;;;20.34;44.40
48848;BME280;36611;51.638;5.784;2022-07-18T01:55:46;102235.25;;;20.29;44.61
48848;BME280;36611;51.638;5.784;2022-07-18T01:58:12;102232.69;;;20.28;44.85
48848;BME280;36611;51.638;5.784;2022-07-18T02:00:39;102238.28;;;20.26;44.93
48848;BME280;36611;51.638;5.784;2022-07-18T02:03:10;102233.81;;;20.25;45.32
48848;BME280;36611;51.638;5.784;2022-07-18T02:05:36;102241.00;;;20.26;45.31
48848;BME280;36611;51.638;5.784;2022-07-18T02:08:03;102242.00;;;20.25;45.22
48848;BME280;36611;51.638;5.784;2022-07-18T02:10:30;102232.09;;;20.24;45.52
48848;BME280;36611;51.638;5.784;2022-07-18T02:12:59;102237.69;;;20.23;45.12
48848;BME280;36611;51.638;5.784;2022-07-18T02:15:26;102240.41;;;20.23;45.34
48848;BME280;36611;51.638;5.784;2022-07-18T02:17:53;102234.09;;;20.22;45.14
48848;BME280;36611;51.638;5.784;2022-07-18T02:20:19;102234.38;;;20.19;45.48
48848;BME280;36611;51.638;5.784;2022-07-18T02:22:50;102227.31;;;20.17;45.20
48848;BME280;36611;51.638;5.784;2022-07-18T02:25:17;102226.75;;;20.13;45.34
48848;BME280;36611;51.638;5.784;2022-07-18T02:27:43;102218.69;;;20.12;45.46
48848;BME280;36611;51.638;5.784;2022-07-18T02:30:10;102219.69;;;20.11;45.35
48848;BME280;36611;51.638;5.784;2022-07-18T02:32:39;102205.19;;;20.10;45.30
48848;BME280;36611;51.638;5.784;2022-07-18T02:35:07;102208.94;;;20.09;45.31
48848;BME280;36611;51.638;5.784;2022-07-18T02:37:35;102208.44;;;20.04;45.05
48848;BME280;36611;51.638;5.784;2022-07-18T02:40:07;102211.84;;;19.96;44.86
48848;BME280;36611;51.638;5.784;2022-07-18T02:45:05;102205.03;;;19.81;45.21
48848;BME280;36611;51.638;5.784;2022-07-18T02:47:32;102211.03;;;19.75;45.56
48848;BME280;36611;51.638;5.784;2022-07-18T02:49:59;102222.34;;;19.71;45.26
48848;BME280;36611;51.638;5.784;2022-07-18T02:52:26;102221.03;;;19.65;45.52
48848;BME280;36611;51.638;5.784;2022-07-18T02:54:52;102216.09;;;19.59;45.70
48848;BME280;36611;51.638;5.784;2022-07-18T02:57:19;102213.06;;;19.52;45.58
48848;BME280;36611;51.638;5.784;2022-07-18T02:59:45;102206.25;;;19.47;46.09
48848;BME280;36611;51.638;5.784;2022-07-18T03:02:12;102205.53;;;19.45;46.08
48848;BME280;36611;51.638;5.784;2022-07-18T03:04:39;102209.97;;;19.46;46.02
48848;BME280;36611;51.638;5.784;2022-07-18T03:07:05;102204.25;;;19.49;46.22
48848;BME280;36611;51.638;5.784;2022-07-18T03:09:32;102203.97;;;19.52;46.02
48848;BME280;36611;51.638;5.784;2022-07-18T03:11:59;102204.75;;;19.54;46.44
48848;BME280;36611;51.638;5.784;2022-07-18T03:14:28;102203.63;;;19.56;46.15
48848;BME280;36611;51.638;5.784;2022-07-18T03:16:55;102207.81;;;19.60;45.99
48848;BME280;36611;51.638;5.784;2022-07-18T03:19:22;102203.81;;;19.64;46.14
48848;BME280;36611;51.638;5.784;2022-07-18T03:21:48;102207.25;;;19.66;46.42
48848;BME280;36611;51.638;5.784;2022-07-18T03:24:16;102206.13;;;19.69;46.39
48848;BME280;36611;51.638;5.784;2022-07-18T03:26:43;102200.69;;;19.69;46.55
48848;BME280;36611;51.638;5.784;2022-07-18T03:29:11;102207.84;;;19.70;46.29
48848;BME280;36611;51.638;5.784;2022-07-18T03:31:38;102196.09;;;19.70;46.48
48848;BME280;36611;51.638;5.784;2022-07-18T03:34:05;102194.34;;;19.68;46.37
48848;BME280;36611;51.638;5.784;2022-07-18T03:36:35;102194.50;;;19.67;46.23
48848;BME280;36611;51.638;5.784;2022-07-18T03:39:05;102188.19;;;19.66;46.31
48848;BME280;36611;51.638;5.784;2022-07-18T03:41:32;102186.59;;;19.64;46.35
48848;BME280;36611;51.638;5.784;2022-07-18T03:43:59;102185.13;;;19.60;46.60
48848;BME280;36611;51.638;5.784;2022-07-18T03:46:26;102183.53;;;19.57;46.30
48848;BME280;36611;51.638;5.784;2022-07-18T03:48:52;102173.78;;;19.55;46.63
48848;BME280;36611;51.638;5.784;2022-07-18T03:51:19;102179.38;;;19.53;46.77
48848;BME280;36611;51.638;5.784;2022-07-18T03:53:50;102183.09;;;19.52;46.75
48848;BME280;36611;51.638;5.784;2022-07-18T03:56:17;102178.59;;;19.51;46.25
48848;BME280;36611;51.638;5.784;2022-07-18T03:58:43;102177.75;;;19.51;46.69
48848;BME280;36611;51.638;5.784;2022-07-18T04:01:11;102182.47;;;19.49;46.46
48848;BME280;36611;51.638;5.784;2022-07-18T04:03:42;102174.28;;;19.49;46.57
48848;BME280;36611;51.638;5.784;2022-07-18T04:06:09;102171.41;;;19.50;46.41
48848;BME280;36611;51.638;5.784;2022-07-18T04:08:35;102166.84;;;19.51;46.81
48848;BME280;36611;51.638;5.784;2022-07-18T04:11:02;102168.56;;;19.52;46.66
48848;BME280;36611;51.638;5.784;2022-07-18T04:13:29;102164.88;;;19.53;46.62
48848;BME280;36611;51.638;5.784;2022-07-18T04:15:55;102166.59;;;19.54;46.84
48848;BME280;36611;51.638;5.784;2022-07-18T04:18:22;102177.38;;;19.55;47.19
48848;BME280;36611;51.638;5.784;2022-07-18T04:20:49;102174.50;;;19.57;46.62
48848;BME280;36611;51.638;5.784;2022-07-18T04:23:16;102164.59;;;19.56;46.89
48848;BME280;36611;51.638;5.784;2022-07-18T04:25:45;102170.19;;;19.54;46.51
48848;BME280;36611;51.638;5.784;2022-07-18T04:28:13;102171.06;;;19.55;47.03
48848;BME280;36611;51.638;5.784;2022-07-18T04:30:41;102178.38;;;19.54;47.15
48848;BME280;36611;51.638;5.784;2022-07-18T04:33:10;102169.31;;;19.54;47.03
48848;BME280;36611;51.638;5.784;2022-07-18T04:35:39;102168.47;;;19.53;46.70
48848;BME280;36611;51.638;5.784;2022-07-18T04:38:07;102158.44;;;19.54;47.13
48848;BME280;36611;51.638;5.784;2022-07-18T04:40:34;102157.44;;;19.55;46.81
48848;BME280;36611;51.638;5.784;2022-07-18T04:43:04;102156.28;;;19.57;47.00
48848;BME280;36611;51.638;5.784;2022-07-18T04:45:32;102145.13;;;19.60;47.17
48848;BME280;36611;51.638;5.784;2022-07-18T04:47:59;102150.16;;;19.65;47.35
48848;BME280;36611;51.638;5.784;2022-07-18T04:50:26;102148.88;;;19.69;47.12
48848;BME280;36611;51.638;5.784;2022-07-18T04:52:58;102152.19;;;19.73;47.38
48848;BME280;36611;51.638;5.784;2022-07-18T04:55:25;102155.66;;;19.75;47.14
48848;BME280;36611;51.638;5.784;2022-07-18T04:57:52;102149.94;;;19.78;47.59
48848;BME280;36611;51.638;5.784;2022-07-18T05:00:21;102152.53;;;19.79;47.51
48848;BME280;36611;51.638;5.784;2022-07-18T05:02:54;102150.78;;;19.78;47.40
48848;BME280;36611;51.638;5.784;2022-07-18T05:05:21;102156.25;;;19.78;47.13
48848;BME280;36611;51.638;5.784;2022-07-18T05:07:49;102159.84;;;19.79;47.58
48848;BME280;36611;51.638;5.784;2022-07-18T05:10:17;102156.84;;;19.82;47.15
48848;BME280;36611;51.638;5.784;2022-07-18T05:12:46;102152.84;;;19.86;47.54
48848;BME280;36611;51.638;5.784;2022-07-18T05:15:15;102158.72;;;19.91;47.57
48848;BME280;36611;51.638;5.784;2022-07-18T05:17:43;102161.78;;;19.97;47.60
48848;BME280;36611;51.638;5.784;2022-07-18T05:20:14;102168.53;;;20.03;47.67
48848;BME280;36611;51.638;5.784;2022-07-18T05:22:45;102149.91;;;20.08;47.71
48848;BME280;36611;51.638;5.784;2022-07-18T05:25:13;102145.91;;;20.12;47.58
48848;BME280;36611;51.638;5.784;2022-07-18T05:27:40;102151.94;;;20.16;47.35
48848;BME280;36611;51.638;5.784;2022-07-18T05:30:09;102147.94;;;20.20;47.19
48848;BME280;36611;51.638;5.784;2022-07-18T05:32:41;102149.09;;;20.27;47.13
48848;BME280;36611;51.638;5.784;2022-07-18T05:35:10;102149.41;;;20.34;47.47
48848;BME280;36611;51.638;5.784;2022-07-18T05:37:37;102153.34;;;20.41;46.91
48848;BME280;36611;51.638;5.784;2022-07-18T05:40:05;102150.03;;;20.47;47.29
48848;BME280;36611;51.638;5.784;2022-07-18T05:42:40;102148.47;;;20.54;47.41
48848;BME280;36611;51.638;5.784;2022-07-18T05:45:23;102150.34;;;20.63;47.22
48848;BME280;36611;51.638;5.784;2022-07-18T05:47:50;102149.63;;;20.71;47.06
48848;BME280;36611;51.638;5.784;2022-07-18T05:50:17;102153.63;;;20.76;47.19
48848;BME280;36611;51.638;5.784;2022-07-18T05:52:48;102144.03;;;20.82;47.13
48848;BME280;36611;51.638;5.784;2022-07-18T05:55:14;102146.06;;;20.89;47.20
48848;BME280;36611;51.638;5.784;2022-07-18T05:57:42;102149.94;;;20.97;47.12
48848;BME280;36611;51.638;5.784;2022-07-18T06:00:09;102150.94;;;21.05;47.30
48848;BME280;36611;51.638;5.784;2022-07-18T06:02:38;102150.63;;;21.18;47.03
48848;BME280;36611;51.638;5.784;2022-07-18T06:05:06;102150.19;;;21.32;47.26
48848;BME280;36611;51.638;5.784;2022-07-18T06:07:48;102153.88;;;21.50;47.12
48848;BME280;36611;51.638;5.784;2022-07-18T06:10:15;102156.88;;;21.67;46.98
48848;BME280;36611;51.638;5.784;2022-07-18T06:12:45;102156.25;;;21.82;46.82
48848;BME280;36611;51.638;5.784;2022-07-18T06:15:13;102153.28;;;22.03;46.58
48848;BME280;36611;51.638;5.784;2022-07-18T06:17:40;102157.63;;;22.24;46.81
48848;BME280;36611;51.638;5.784;2022-07-18T06:20:07;102159.13;;;22.45;46.22
48848;BME280;36611;51.638;5.784;2022-07-18T06:22:38;102144.81;;;22.69;46.46
48848;BME280;36611;51.638;5.784;2022-07-18T06:25:05;102148.81;;;22.93;46.01
48848;BME280;36611;51.638;5.784;2022-07-18T06:27:32;102145.59;;;23.15;45.92
48848;BME280;36611;51.638;5.784;2022-07-18T06:29:59;102138.56;;;23.38;45.36
48848;BME280;36611;51.638;5.784;2022-07-18T06:32:25;102142.19;;;23.65;45.27
48848;BME280;36611;51.638;5.784;2022-07-18T06:34:55;102140.63;;;23.88;44.90
48848;BME280;36611;51.638;5.784;2022-07-18T06:37:22;102138.63;;;24.06;44.70
48848;BME280;36611;51.638;5.784;2022-07-18T06:39:48;102134.06;;;24.23;44.35
48848;BME280;36611;51.638;5.784;2022-07-18T06:42:15;102128.47;;;24.41;43.92
48848;BME280;36611;51.638;5.784;2022-07-18T06:44:42;102118.41;;;24.58;43.82
48848;BME280;36611;51.638;5.784;2022-07-18T06:47:09;102119.63;;;24.80;43.61
48848;BME280;36611;51.638;5.784;2022-07-18T06:49:35;102116.72;;;24.97;43.68
48848;BME280;36611;51.638;5.784;2022-07-18T06:52:02;102112.06;;;25.14;43.05
48848;BME280;36611;51.638;5.784;2022-07-18T06:54:31;102111.19;;;25.38;43.07
48848;BME280;36611;51.638;5.784;2022-07-18T06:56:59;102112.16;;;25.61;42.79
48848;BME280;36611;51.638;5.784;2022-07-18T06:59:26;102117.78;;;25.84;42.52
48848;BME280;36611;51.638;5.784;2022-07-18T07:01:52;102110.66;;;26.06;42.33
48848;BME280;36611;51.638;5.784;2022-07-18T07:04:19;102112.09;;;26.25;41.75
48848;BME280;36611;51.638;5.784;2022-07-18T07:06:46;102114.59;;;26.43;41.58
48848;BME280;36611;51.638;5.784;2022-07-18T07:09:12;102122.56;;;26.60;41.14
48848;BME280;36611;51.638;5.784;2022-07-18T07:11:39;102132.97;;;26.73;40.79
48848;BME280;36611;51.638;5.784;2022-07-18T07:14:07;102126.22;;;26.84;40.11
48848;BME280;36611;51.638;5.784;2022-07-18T07:16:34;102120.06;;;26.97;40.00
48848;BME280;36611;51.638;5.784;2022-07-18T07:19:01;102113.88;;;27.17;39.70
48848;BME280;36611;51.638;5.784;2022-07-18T07:21:27;102115.13;;;27.30;39.18
48848;BME280;36611;51.638;5.784;2022-07-18T07:23:58;102123.59;;;27.43;38.96
48848;BME280;36611;51.638;5.784;2022-07-18T07:26:24;102118.97;;;27.58;38.86
48848;BME280;36611;51.638;5.784;2022-07-18T07:28:51;102118.34;;;27.71;38.78
48848;BME280;36611;51.638;5.784;2022-07-18T07:31:17;102129.75;;;27.82;38.45
48848;BME280;36611;51.638;5.784;2022-07-18T07:33:44;102122.78;;;28.01;38.79
48848;BME280;36611;51.638;5.784;2022-07-18T07:36:11;102123.16;;;28.28;38.64
48848;BME280;36611;51.638;5.784;2022-07-18T07:38:37;102123.53;;;28.61;38.19
48848;BME280;36611;51.638;5.784;2022-07-18T07:41:04;102119.72;;;28.83;37.70
48848;BME280;36611;51.638;5.784;2022-07-18T07:43:31;102123.28;;;28.98;37.46
48848;BME280;36611;51.638;5.784;2022-07-18T07:45:57;102117.88;;;29.12;37.16
48848;BME280;36611;51.638;5.784;2022-07-18T07:48:24;102100.94;;;29.21;37.10
48848;BME280;36611;51.638;5.784;2022-07-18T07:50:51;102110.59;;;29.32;36.51
48848;BME280;36611;51.638;5.784;2022-07-18T07:53:21;102096.81;;;29.38;36.06
48848;BME280;36611;51.638;5.784;2022-07-18T07:55:48;102095.84;;;29.53;35.97
48848;BME280;36611;51.638;5.784;2022-07-18T07:58:15;102083.19;;;29.71;35.90
48848;BME280;36611;51.638;5.784;2022-07-18T08:00:42;102083.06;;;29.86;35.38
48848;BME280;36611;51.638;5.784;2022-07-18T08:03:10;102081.41;;;29.98;35.44
48848;BME280;36611;51.638;5.784;2022-07-18T08:05:38;102074.44;;;30.09;34.83
48848;BME280;36611;51.638;5.784;2022-07-18T08:08:10;102067.22;;;30.15;35.08
48848;BME280;36611;51.638;5.784;2022-07-18T08:10:36;102070.22;;;30.20;34.48
48848;BME280;36611;51.638;5.784;2022-07-18T08:13:12;102069.81;;;30.29;34.16
48848;BME280;36611;51.638;5.784;2022-07-18T08:15:40;102071.53;;;30.37;34.12
48848;BME280;36611;51.638;5.784;2022-07-18T08:18:06;102076.91;;;30.52;33.58
48848;BME280;36611;51.638;5.784;2022-07-18T08:20:33;102096.16;;;30.60;33.20
48848;BME280;36611;51.638;5.784;2022-07-18T08:23:07;102088.69;;;30.67;32.82
48848;BME280;36611;51.638;5.784;2022-07-18T08:25:37;102086.34;;;30.71;32.73
48848;BME280;36611;51.638;5.784;2022-07-18T08:28:04;102088.06;;;30.85;32.91
48848;BME280;36611;51.638;5.784;2022-07-18T08:30:31;102093.19;;;31.08;32.62
48848;BME280;36611;51.638;5.784;2022-07-18T08:33:03;102092.38;;;31.27;32.10
48848;BME280;36611;51.638;5.784;2022-07-18T08:35:31;102094.91;;;31.35;32.01
48848;BME280;36611;51.638;5.784;2022-07-18T08:38:02;102097.06;;;31.40;31.68
48848;BME280;36611;51.638;5.784;2022-07-18T08:40:29;102092.78;;;31.44;31.51
48848;BME280;36611;51.638;5.784;2022-07-18T08:43:00;102093.00;;;31.42;31.27
48848;BME280;36611;51.638;5.784;2022-07-18T08:45:47;102094.69;;;31.50;31.52
48848;BME280;36611;51.638;5.784;2022-07-18T08:48:15;102096.78;;;31.61;31.22
48848;BME280;36611;51.638;5.784;2022-07-18T08:50:46;102090.59;;;31.72;30.69
48848;BME280;36611;51.638;5.784;2022-07-18T08:53:18;102092.28;;;31.73;30.64
48848;BME280;36611;51.638;5.784;2022-07-18T08:55:46;102083.50;;;31.76;30.42
48848;BME280;36611;51.638;5.784;2022-07-18T08:58:13;102089.06;;;31.76;30.19
48848;BME280;36611;51.638;5.784;2022-07-18T09:01:01;102085.00;;;31.79;29.92
48848;BME280;36611;51.638;5.784;2022-07-18T09:03:32;102073.66;;;31.80;30.29
48848;BME280;36611;51.638;5.784;2022-07-18T09:06:03;102081.53;;;31.90;30.33
48848;BME280;36611;51.638;5.784;2022-07-18T09:08:30;102074.47;;;32.01;30.15
48848;BME280;36611;51.638;5.784;2022-07-18T09:10:59;102074.44;;;32.07;29.85
48848;BME280;36611;51.638;5.784;2022-07-18T09:13:41;102071.63;;;32.14;29.86
48848;BME280;36611;51.638;5.784;2022-07-18T09:16:14;102074.97;;;32.22;29.30
48848;BME280;36611;51.638;5.784;2022-07-18T09:18:46;102081.38;;;32.30;29.36
48848;BME280;36611;51.638;5.784;2022-07-18T09:21:20;102071.69;;;32.39;29.17
48848;BME280;36611;51.638;5.784;2022-07-18T09:23:51;102071.44;;;32.47;28.99
48848;BME280;36611;51.638;5.784;2022-07-18T09:26:40;102080.41;;;32.49;28.87
48848;BME280;36611;51.638;5.784;2022-07-18T09:29:08;102077.56;;;32.55;29.01
48848;BME280;36611;51.638;5.784;2022-07-18T09:31:53;102076.06;;;32.60;28.90
48848;BME280;36611;51.638;5.784;2022-07-18T09:34:33;102076.19;;;32.71;28.94
48848;BME280;36611;51.638;5.784;2022-07-18T09:37:01;102076.97;;;32.85;28.63
48848;BME280;36611;51.638;5.784;2022-07-18T09:39:28;102079.03;;;32.96;28.71
48848;BME280;36611;51.638;5.784;2022-07-18T09:42:18;102075.94;;;33.04;28.77
48848;BME280;36611;51.638;5.784;2022-07-18T09:45:00;102081.78;;;33.21;28.24
48848;BME280;36611;51.638;5.784;2022-07-18T09:47:27;102079.75;;;33.35;28.60
48848;BME280;36611;51.638;5.784;2022-07-18T09:49:54;102077.94;;;33.47;28.42
48848;BME280;36611;51.638;5.784;2022-07-18T09:52:22;102079.47;;;33.61;28.06
48848;BME280;36611;51.638;5.784;2022-07-18T09:55:03;102065.38;;;33.74;27.86
48848;BME280;36611;51.638;5.784;2022-07-18T09:57:31;102072.13;;;33.85;27.48
48848;BME280;36611;51.638;5.784;2022-07-18T09:59:59;102066.72;;;33.90;27.20
48848;BME280;36611;51.638;5.784;2022-07-18T10:02:25;102072.66;;;33.94;27.26
48848;BME280;36611;51.638;5.784;2022-07-18T10:04:52;102072.44;;;33.95;27.01
48848;BME280;36611;51.638;5.784;2022-07-18T10:07:19;102068.09;;;33.99;27.10
48848;BME280;36611;51.638;5.784;2022-07-18T10:09:46;102066.78;;;34.02;27.12
48848;BME280;36611;51.638;5.784;2022-07-18T10:12:16;102067.75;;;34.07;26.86
48848;BME280;36611;51.638;5.784;2022-07-18T10:14:43;102065.59;;;34.09;26.61
48848;BME280;36611;51.638;5.784;2022-07-18T10:17:10;102062.34;;;34.13;26.76
48848;BME280;36611;51.638;5.784;2022-07-18T10:19:37;102065.19;;;34.24;26.63
48848;BME280;36611;51.638;5.784;2022-07-18T10:22:06;102062.72;;;34.34;26.75
48848;BME280;36611;51.638;5.784;2022-07-18T10:24:38;102061.53;;;34.42;26.25
48848;BME280;36611;51.638;5.784;2022-07-18T10:29:38;102058.50;;;34.44;26.61
48848;BME280;36611;51.638;5.784;2022-07-18T10:32:05;102061.38;;;34.37;26.41
48848;BME280;36611;51.638;5.784;2022-07-18T10:34:36;102063.25;;;34.25;26.13
48848;BME280;36611;51.638;5.784;2022-07-18T10:39:40;102060.09;;;34.21;26.37
48848;BME280;36611;51.638;5.784;2022-07-18T10:44:36;102057.50;;;34.38;25.99
48848;BME280;36611;51.638;5.784;2022-07-18T10:47:07;102049.28;;;34.43;25.76
48848;BME280;36611;51.638;5.784;2022-07-18T10:57:40;102037.81;;;34.74;26.08
48848;BME280;36611;51.638;5.784;2022-07-18T11:18:21;102041.34;;;35.87;23.91
48848;BME280;36611;51.638;5.784;2022-07-18T11:20:48;102035.09;;;35.96;24.37
48848;BME280;36611;51.638;5.784;2022-07-18T11:23:23;102025.47;;;36.04;23.98
48848;BME280;36611;51.638;5.784;2022-07-18T11:25:52;102019.22;;;36.14;24.31
48848;BME280;36611;51.638;5.784;2022-07-18T11:28:27;102018.31;;;36.25;24.03
48848;BME280;36611;51.638;5.784;2022-07-18T11:31:06;102010.72;;;36.37;24.38
48848;BME280;36611;51.638;5.784;2022-07-18T11:33:43;102021.09;;;36.53;24.19
48848;BME280;36611;51.638;5.784;2022-07-18T11:36:17;102008.38;;;36.63;23.44
48848;BME280;36611;51.638;5.784;2022-07-18T11:38:53;102010.66;;;36.66;22.95
48848;BME280;36611;51.638;5.784;2022-07-18T11:41:21;102006.69;;;36.62;23.54
48848;BME280;36611;51.638;5.784;2022-07-18T11:43:50;102011.44;;;36.61;23.02
48848;BME280;36611;51.638;5.784;2022-07-18T11:46:19;102002.78;;;36.63;23.13
48848;BME280;36611;51.638;5.784;2022-07-18T11:48:48;102002.59;;;36.69;22.49
48848;BME280;36611;51.638;5.784;2022-07-18T11:51:19;101997.47;;;36.78;22.29
48848;BME280;36611;51.638;5.784;2022-07-18T11:53:51;101994.22;;;36.86;22.07
48848;BME280;36611;51.638;5.784;2022-07-18T11:56:20;102001.25;;;36.88;22.48
48848;BME280;36611;51.638;5.784;2022-07-18T11:58:49;101995.84;;;36.82;22.29
48848;BME280;36611;51.638;5.784;2022-07-18T12:01:16;101987.44;;;36.82;22.45
48848;BME280;36611;51.638;5.784;2022-07-18T12:03:45;101987.19;;;36.83;22.34
48848;BME280;36611;51.638;5.784;2022-07-18T12:06:23;101987.53;;;36.87;21.94
48848;BME280;36611;51.638;5.784;2022-07-18T12:08:51;101985.91;;;36.91;21.77
48848;BME280;36611;51.638;5.784;2022-07-18T12:11:33;101986.50;;;36.93;21.95
48848;BME280;36611;51.638;5.784;2022-07-18T12:16:38;101981.69;;;37.10;21.52
48848;BME280;36611;51.638;5.784;2022-07-18T12:19:10;101979.31;;;37.19;21.30
48848;BME280;36611;51.638;5.784;2022-07-18T12:24:24;101974.03;;;37.39;21.35
48848;BME280;36611;51.638;5.784;2022-07-18T12:35:00;101963.25;;;37.53;21.47
48848;BME280;36611;51.638;5.784;2022-07-18T12:37:28;101961.31;;;37.53;21.47
48848;BME280;36611;51.638;5.784;2022-07-18T12:39:57;101963.84;;;37.55;21.02
48848;BME280;36611;51.638;5.784;2022-07-18T12:42:45;101951.16;;;37.69;21.60
48848;BME280;36611;51.638;5.784;2022-07-18T12:45:13;101962.00;;;37.88;21.14
48848;BME280;36611;51.638;5.784;2022-07-18T12:47:40;101954.03;;;38.01;21.33
48848;BME280;36611;51.638;5.784;2022-07-18T12:50:07;101952.25;;;38.17;21.06
48848;BME280;36611;51.638;5.784;2022-07-18T12:52:42;101955.50;;;38.36;21.01
48848;BME280;36611;51.638;5.784;2022-07-18T12:55:08;101954.47;;;38.47;20.21
48848;BME280;36611;51.638;5.784;2022-07-18T12:57:35;101949.16;;;38.51;20.28
48848;BME280;36611;51.638;5.784;2022-07-18T13:00:03;101944.97;;;38.53;19.81
48848;BME280;36611;51.638;5.784;2022-07-18T13:02:29;101945.81;;;38.54;20.06
48848;BME280;36611;51.638;5.784;2022-07-18T13:04:57;101948.63;;;38.54;19.41
48848;BME280;36611;51.638;5.784;2022-07-18T13:07:24;101935.16;;;38.56;19.84
48848;BME280;36611;51.638;5.784;2022-07-18T13:09:50;101933.50;;;38.60;19.78
48848;BME280;36611;51.638;5.784;2022-07-18T13:12:17;101933.50;;;38.60;19.02
48848;BME280;36611;51.638;5.784;2022-07-18T13:14:44;101928.75;;;38.60;19.48
48848;BME280;36611;51.638;5.784;2022-07-18T13:17:10;101935.00;;;38.67;18.73
48848;BME280;36611;51.638;5.784;2022-07-18T13:19:37;101926.03;;;38.70;18.81
48848;BME280;36611;51.638;5.784;2022-07-18T13:22:04;101923.53;;;38.74;18.80
48848;BME280;36611;51.638;5.784;2022-07-18T13:24:32;101921.59;;;38.80;18.89
48848;BME280;36611;51.638;5.784;2022-07-18T13:27:01;101922.47;;;38.85;18.93
48848;BME280;36611;51.638;5.784;2022-07-18T13:29:28;101914.63;;;38.87;19.33
48848;BME280;36611;51.638;5.784;2022-07-18T13:31:55;101920.25;;;38.87;18.87
48848;BME280;36611;51.638;5.784;2022-07-18T13:34:23;101914.91;;;38.86;19.26
48848;BME280;36611;51.638;5.784;2022-07-18T13:36:51;101909.59;;;38.89;19.26
48848;BME280;36611;51.638;5.784;2022-07-18T13:39:19;101909.03;;;38.92;19.28
48848;BME280;36611;51.638;5.784;2022-07-18T13:41:46;101911.56;;;38.94;19.33
48848;BME280;36611;51.638;5.784;2022-07-18T13:44:14;101909.06;;;38.97;19.24
48848;BME280;36611;51.638;5.784;2022-07-18T13:46:41;101913.28;;;39.00;19.00
48848;BME280;36611;51.638;5.784;2022-07-18T13:49:10;101906.88;;;39.04;18.96